createdAt,value
2022-11-29T18:09:18.293Z,43.65
2022-11-29T18:10:22.414Z,45.28
2022-11-29T18:11:27.658Z,46.23
2022-11-29T18:12:31.820Z,47.06
2022-11-29T18:13:35.914Z,46.96
2022-11-29T18:14:40.097Z,47.06
2022-11-29T18:15:44.603Z,47.27
2022-11-29T18:16:49.040Z,47.34
2022-11-29T18:17:53.232Z,47.4
2022-11-29T18:18:57.347Z,47.43
2022-11-29T18:20:01.475Z,47.39
2022-11-29T18:21:05.578Z,47.38
2022-11-29T18:22:09.689Z,47.43
2022-11-29T18:23:13.823Z,47.4
2022-11-29T18:24:17.934Z,47.28
2022-11-29T18:25:41.422Z,47.24
2022-11-29T18:26:45.694Z,47.23
2022-11-29T18:27:49.786Z,47.26
2022-11-29T18:28:53.913Z,47.27
2022-11-29T18:29:58.013Z,47.2
2022-11-29T18:31:02.327Z,47.01
2022-11-29T18:32:06.457Z,46.98
2022-11-29T18:33:10.559Z,46.94
2022-11-29T18:34:14.735Z,46.86
2022-11-29T18:35:18.826Z,46.83
2022-11-29T18:36:22.954Z,46.81
2022-11-29T18:38:16.824Z,46.74
2022-11-29T18:39:21.067Z,46.82
2022-11-29T18:40:25.165Z,46.75
2022-11-29T18:41:29.317Z,46.78
2022-11-29T18:42:33.428Z,46.71
2022-11-29T18:43:40.979Z,46.67
2022-11-29T18:44:46.217Z,46.66
2022-11-29T18:45:50.695Z,46.68
2022-11-29T18:46:54.849Z,46.65
2022-11-29T18:47:58.947Z,46.76
2022-11-29T18:49:03.045Z,46.71
2022-11-29T18:50:07.161Z,46.74
2022-11-29T18:51:11.261Z,46.79
2022-11-29T18:52:15.390Z,46.73
2022-11-29T18:53:19.504Z,46.73
2022-11-29T18:54:23.713Z,46.85
2022-11-29T18:55:27.824Z,46.97
2022-11-29T18:56:31.944Z,46.94
2022-11-29T18:57:36.053Z,47.01
2022-11-29T18:58:40.186Z,47.1
2022-11-29T18:59:44.287Z,47.2
2022-11-29T19:00:48.416Z,47.29
2022-11-29T19:01:52.765Z,47.38
2022-11-29T19:02:57.055Z,47.46
2022-11-29T19:04:01.178Z,47.46
2022-11-29T19:05:11.466Z,47.7
2022-11-29T19:06:18.921Z,47.84
2022-11-29T19:07:23.671Z,47.86
2022-11-29T19:08:27.853Z,47.99
2022-11-29T19:09:31.969Z,48.11
2022-11-29T19:10:36.066Z,48.19
2022-11-29T19:11:40.188Z,48.24
2022-11-29T19:12:44.324Z,48.28
2022-11-29T19:13:48.426Z,48.36
2022-11-29T19:14:53.608Z,48.34
2022-11-29T19:15:58.051Z,48.45
2022-11-29T19:17:02.196Z,48.46
2022-11-29T19:18:06.282Z,48.52
2022-11-29T19:19:10.384Z,48.62
2022-11-29T19:20:14.512Z,48.69
2022-11-29T19:21:18.601Z,48.8
2022-11-29T19:22:22.758Z,48.93
2022-11-29T19:23:26.962Z,48.99
2022-11-29T19:24:31.097Z,49.05
2022-11-29T19:25:35.204Z,49.06
2022-11-29T19:26:39.301Z,49.02
2022-11-29T19:27:43.422Z,49.04
2022-11-29T19:28:47.519Z,49.12
2022-11-29T19:29:52.156Z,49.14
2022-11-29T19:30:56.446Z,49.16
2022-11-29T19:32:00.616Z,49.23
2022-11-29T19:33:04.737Z,49.28
2022-11-29T19:34:08.841Z,49.31
2022-11-29T19:35:12.944Z,49.3
2022-11-29T19:36:17.050Z,49.31
2022-11-29T19:37:21.266Z,49.32
2022-11-29T19:38:25.392Z,49.34
2022-11-29T19:39:29.520Z,49.32
2022-11-29T19:40:33.655Z,49.34
2022-11-29T19:41:37.762Z,49.37
2022-11-29T19:42:41.876Z,49.39
2022-11-29T19:43:45.981Z,49.38
2022-11-29T19:45:20.722Z,49.43
2022-11-29T19:46:25.000Z,49.44
2022-11-29T19:47:29.156Z,49.44
2022-11-29T19:48:33.267Z,49.45
2022-11-29T19:49:37.366Z,49.44
2022-11-29T19:50:41.501Z,49.46
2022-11-29T19:51:45.623Z,49.47
2022-11-29T19:52:49.729Z,49.46
2022-11-29T19:53:53.825Z,49.45
2022-11-29T19:54:57.955Z,49.5
2022-11-29T19:56:02.045Z,49.49
2022-11-29T19:57:06.156Z,49.51
2022-11-29T19:58:10.288Z,49.5
2022-11-29T19:59:14.455Z,49.49
2022-11-29T20:00:18.803Z,49.49
2022-11-29T20:01:23.234Z,49.5
2022-11-29T20:02:27.865Z,49.49
2022-11-29T20:03:32.080Z,49.57
2022-11-29T20:04:36.197Z,49.67
2022-11-29T20:05:40.288Z,49.73
2022-11-29T20:06:44.394Z,49.66
2022-11-29T20:07:48.722Z,49.72
2022-11-29T20:08:52.907Z,49.77
2022-11-29T20:09:57.015Z,49.69
2022-11-29T20:11:01.163Z,49.77
2022-11-29T20:12:05.328Z,49.81
2022-11-29T20:13:09.437Z,49.88
2022-11-29T20:14:13.544Z,49.89
2022-11-29T20:15:17.648Z,49.85
2022-11-29T20:16:22.059Z,49.78
2022-11-29T20:17:26.249Z,49.82
2022-11-29T20:18:30.364Z,49.77
2022-11-29T20:19:34.488Z,49.8
2022-11-29T20:20:38.624Z,49.77
2022-11-29T20:21:42.752Z,49.76
2022-11-29T20:22:46.880Z,49.68
2022-11-29T20:23:50.982Z,49.69
2022-11-29T20:24:55.073Z,49.73
2022-11-29T20:25:59.186Z,49.66
2022-11-29T20:27:03.295Z,49.62
2022-11-29T20:28:07.392Z,49.66
2022-11-29T20:29:11.482Z,49.64
2022-11-29T20:30:15.593Z,49.65
2022-11-29T20:31:20.106Z,49.64
2022-11-29T20:32:24.215Z,49.67
2022-11-29T20:33:28.290Z,49.72
2022-11-29T20:34:32.408Z,49.76
2022-11-29T20:35:36.516Z,49.83
2022-11-29T20:36:40.635Z,49.77
2022-11-29T20:37:44.742Z,49.75
2022-11-29T20:38:48.833Z,49.91
2022-11-29T20:39:52.927Z,49.92
2022-11-29T20:41:04.227Z,49.87
2022-11-29T20:42:08.366Z,49.97
2022-11-29T20:43:12.495Z,49.74
2022-11-29T20:44:16.602Z,49.72
2022-11-29T20:45:20.696Z,49.7
2022-11-29T20:46:24.992Z,49.72
2022-11-29T20:47:29.124Z,49.92
2022-11-29T20:48:33.259Z,49.84
2022-11-29T20:49:37.462Z,49.66
2022-11-29T20:50:41.559Z,49.78
2022-11-29T20:51:45.648Z,49.83
2022-11-29T20:52:49.770Z,49.78
2022-11-29T20:53:53.886Z,49.88
2022-11-29T20:54:57.988Z,49.88
2022-11-29T20:56:02.079Z,49.91
2022-11-29T20:57:06.199Z,49.87
2022-11-29T20:58:10.307Z,49.94
2022-11-29T20:59:14.410Z,49.91
2022-11-29T21:00:18.599Z,49.98
2022-11-29T21:01:22.992Z,49.96
2022-11-29T21:02:27.131Z,49.94
2022-11-29T21:03:31.463Z,50.17
2022-11-29T21:04:35.585Z,50
2022-11-29T21:05:39.720Z,50.03
2022-11-29T21:06:43.837Z,50.25
2022-11-29T21:07:48.224Z,49.98
2022-11-29T21:08:52.372Z,50.33
2022-11-29T21:10:03.169Z,50.24
2022-11-29T21:11:07.281Z,50.04
2022-11-29T21:12:11.398Z,50.13
2022-11-29T21:13:15.514Z,50.03
2022-11-29T21:14:19.646Z,50.06
2022-11-29T21:15:23.755Z,50.14
2022-11-29T21:16:28.049Z,50
2022-11-29T21:17:35.670Z,49.99
2022-11-29T21:18:39.778Z,49.99
2022-11-29T21:19:43.912Z,50.04
2022-11-29T21:20:48.026Z,50.14
2022-11-29T21:21:52.111Z,50.09
2022-11-29T21:22:56.201Z,50.1
2022-11-29T21:24:00.291Z,50.12
2022-11-29T21:25:04.467Z,50.08
2022-11-29T21:26:08.619Z,50.08
2022-11-29T21:27:12.716Z,50.18
2022-11-29T21:28:16.816Z,50.41
2022-11-29T21:29:20.931Z,50.11
2022-11-29T21:30:25.047Z,50.2
2022-11-29T21:31:29.410Z,50.17
2022-11-29T21:32:33.552Z,50.1
2022-11-29T21:33:37.650Z,50.12
2022-11-29T21:34:41.752Z,50.08
2022-11-29T21:35:45.851Z,50.2
2022-11-29T21:36:49.945Z,50.29
2022-11-29T21:37:54.050Z,50.42
2022-11-29T21:39:05.950Z,50.3
2022-11-29T21:40:10.055Z,50.09
2022-11-29T21:41:14.183Z,50.31
2022-11-29T21:42:18.269Z,50.36
2022-11-29T21:44:06.364Z,50.07
2022-11-29T21:45:17.382Z,50.17
2022-11-29T21:46:21.663Z,50.33
2022-11-29T21:47:25.791Z,50.12
2022-11-29T21:48:29.893Z,50.06
2022-11-29T21:49:33.992Z,50.34
2022-11-29T21:50:38.101Z,50.28
2022-11-29T21:51:42.212Z,50.33
2022-11-29T21:52:46.303Z,50.36
2022-11-29T21:53:50.449Z,50.39
2022-11-29T21:54:54.565Z,50.25
2022-11-29T21:55:58.674Z,50.16
2022-11-29T21:57:02.797Z,50.14
2022-11-29T21:58:06.936Z,50.29
2022-11-29T21:59:11.054Z,50.17
2022-11-29T22:00:15.173Z,50.14
2022-11-29T22:01:19.642Z,50.31
2022-11-29T22:02:24.326Z,50.17
2022-11-29T22:03:28.477Z,50.18
2022-11-29T22:04:32.564Z,50.47
2022-11-29T22:05:36.672Z,50.31
2022-11-29T22:06:40.777Z,50.38
2022-11-29T22:07:45.062Z,50.46
2022-11-29T22:08:49.277Z,50.33
2022-11-29T22:09:53.388Z,50.33
2022-11-29T22:10:57.494Z,50.58
2022-11-29T22:12:32.874Z,50.41
2022-11-29T22:13:37.893Z,50.23
2022-11-29T22:14:42.016Z,50.37
2022-11-29T22:15:46.349Z,50.4
2022-11-29T22:16:50.507Z,50.27
2022-11-29T22:17:54.618Z,50.4
2022-11-29T22:18:58.744Z,50.24
2022-11-29T22:20:02.851Z,50.48
2022-11-29T22:21:06.953Z,50.39
2022-11-29T22:22:11.080Z,50.27
2022-11-29T22:23:15.215Z,50.26
2022-11-29T22:24:19.335Z,50.25
2022-11-29T22:25:23.444Z,50.28
2022-11-29T22:26:27.565Z,50.45
2022-11-29T22:27:31.677Z,50.32
2022-11-29T22:28:35.772Z,50.32
2022-11-29T22:29:39.878Z,50.32
2022-11-29T22:30:43.986Z,50.26
2022-11-29T22:31:48.329Z,50.33
2022-11-29T22:32:52.480Z,50.3
2022-11-29T22:33:56.688Z,50.54
2022-11-29T22:35:00.798Z,50.38
2022-11-29T22:36:04.908Z,50.31
2022-11-29T22:37:09.121Z,50.37
2022-11-29T22:38:13.227Z,50.32
2022-11-29T22:39:17.312Z,50.36
2022-11-29T22:40:21.419Z,50.37
2022-11-29T22:41:25.510Z,50.32
2022-11-29T22:42:29.629Z,50.38
2022-11-29T22:43:33.727Z,50.48
2022-11-29T22:44:37.815Z,50.36
2022-11-29T22:45:41.920Z,50.31
2022-11-29T22:46:46.237Z,50.38
2022-11-29T22:47:50.365Z,50.42
2022-11-29T22:48:54.480Z,50.42
2022-11-29T22:49:58.580Z,50.43
2022-11-29T22:51:02.687Z,50.44
2022-11-29T22:52:06.805Z,50.43
2022-11-29T22:53:10.897Z,50.47
2022-11-29T22:54:14.993Z,50.38
2022-11-29T22:55:19.104Z,50.36
2022-11-29T22:56:23.257Z,50.44
2022-11-29T22:57:27.352Z,50.43
2022-11-29T22:58:31.461Z,50.68
2022-11-29T22:59:35.576Z,50.43
2022-11-29T23:00:39.813Z,50.43
2022-11-29T23:01:44.375Z,50.49
2022-11-29T23:02:48.488Z,50.42
2022-11-29T23:03:52.696Z,50.43
2022-11-29T23:04:56.809Z,50.44
2022-11-29T23:06:00.903Z,50.46
2022-11-29T23:07:05.021Z,50.44
2022-11-29T23:08:09.122Z,50.43
2022-11-29T23:09:13.218Z,50.45
2022-11-29T23:10:17.339Z,50.46
2022-11-29T23:11:21.444Z,50.46
2022-11-29T23:12:25.546Z,50.47
2022-11-29T23:13:29.641Z,50.44
2022-11-29T23:14:33.722Z,50.46
2022-11-29T23:15:37.836Z,50.52
2022-11-29T23:16:42.222Z,50.48
2022-11-29T23:17:46.368Z,50.51
2022-11-29T23:18:50.490Z,50.48
2022-11-29T23:19:54.581Z,50.46
2022-11-29T23:20:58.665Z,50.49
2022-11-29T23:22:02.777Z,50.5
2022-11-29T23:23:06.871Z,50.5
2022-11-29T23:24:10.965Z,50.51
2022-11-29T23:25:15.075Z,50.49
2022-11-29T23:26:19.174Z,50.49
2022-11-29T23:27:23.392Z,50.53
2022-11-29T23:28:27.488Z,50.53
2022-11-29T23:29:31.578Z,50.5
2022-11-29T23:30:35.705Z,50.5
2022-11-29T23:31:40.141Z,50.52
2022-11-29T23:32:44.288Z,50.51
2022-11-29T23:33:48.427Z,50.51
2022-11-29T23:34:52.546Z,50.5
2022-11-29T23:35:56.674Z,50.51
2022-11-29T23:37:00.761Z,50.61
2022-11-29T23:38:04.874Z,50.54
2022-11-29T23:39:09.022Z,50.57
2022-11-29T23:40:13.130Z,50.6
2022-11-29T23:41:17.214Z,50.64
2022-11-29T23:42:21.317Z,50.62
2022-11-29T23:43:25.432Z,50.61
2022-11-29T23:44:29.614Z,50.65
2022-11-29T23:45:33.878Z,50.64
2022-11-29T23:46:37.987Z,50.74
2022-11-29T23:47:42.094Z,50.73
2022-11-29T23:48:46.190Z,50.68
2022-11-29T23:49:50.277Z,50.67
2022-11-29T23:50:54.381Z,50.78
2022-11-29T23:51:58.475Z,50.72
2022-11-29T23:53:02.565Z,50.63
2022-11-29T23:54:06.663Z,50.64
2022-11-29T23:55:10.778Z,50.71
2022-11-29T23:56:14.888Z,50.7
2022-11-29T23:57:18.987Z,50.66
2022-11-29T23:58:23.091Z,50.62
2022-11-29T23:59:27.186Z,50.68
